Darstellungsparameter: Aktuell verwendete Einstellungen:
Skalierung der Graphiken ... ?
xyx+y,   Skalierungsfaktor:      Skalierung: Modus: x, Faktor: 1
Darstellungszeitraum ... ?
Vom - - bis: - -   Zeitraum: 15.09.2016 - 15.09.2016
Min/Max/Avg-Anzeige ... ?
Zeige MMA aktuell
Zeige MMA Monat
Zeige MMA alles
Zeige --A aktuell
Zeige --A Monat
Zeige --A alles
Keine MMA-Anzeige
MMA:
Average (ber die Originaldaten)
MMA-Basis: 15.09.2016 - 15.09.2016
Quicknavigation für Darstellung... ?
Tage:      1T, 2T, 3T, 5T -1T -2T -3T -5T +1T +2T +3T +5T
Wochen: 1W, 2W, 3W -1W -2W -3W +1W +2W +3W
Monate: 1M, 3M, 6M -1M -3M -6M +1M +3M +6M
Jahre:    1J, 3J, 5J, 10J -1J -3J -5J -10J +1J +3J +5J +10J
Nutze für die Darstellung ... ?
Originaldaten oder Mittelwerte auf ...
Stundenbasis Tagesbasis Wochenbasis
Monatsbasis Jahresbasis      Datenbasis: Original-Daten
Darstellen als:
Statistik (Auto) Statistik J:M      Darstellung:
Zur Graphik,    zurück zur Übersicht aller Sensoren.
 
Tabellarische Datenbersicht: ?
 
Sensor: Nr:Datum:Temp:Abs-Feuchte:Windchill:Wind:
Aussen-T/F 1 15-09-2016 00:00:00 18.1 C 12.36 g/m*3 18.1 C 0 km/h
2 15-09-2016 00:05:00 18 C 12.29 g/m*3 18 C 0 km/h
3 15-09-2016 00:10:00 18 C 12.44 g/m*3 18 C 0 km/h
4 15-09-2016 00:15:00 17.9 C 12.21 g/m*3 17.9 C 0 km/h
5 15-09-2016 00:20:00 17.9 C 12.37 g/m*3 17.9 C 0 km/h
6 15-09-2016 00:25:00 17.8 C 12.29 g/m*3 17.8 C 0 km/h
7 15-09-2016 00:30:00 17.8 C 12.29 g/m*3 17.8 C 0 km/h
8 15-09-2016 00:35:00 17.7 C 12.22 g/m*3 17.7 C 0 km/h
9 15-09-2016 00:40:00 17.7 C 12.37 g/m*3 17.7 C 0 km/h
10 15-09-2016 00:45:00 17.6 C 12.3 g/m*3 17.6 C 0 km/h
11 15-09-2016 00:50:00 17.6 C 12.3 g/m*3 17.6 C 0 km/h
12 15-09-2016 00:55:00 17.5 C 12.08 g/m*3 17.5 C 0 km/h
13 15-09-2016 01:00:00 17.6 C 12.15 g/m*3 17.6 C 0 km/h
14 15-09-2016 01:05:00 17.5 C 12.23 g/m*3 17.5 C 0 km/h
15 15-09-2016 01:10:00 17.4 C 12.15 g/m*3 17.4 C 0 km/h
16 15-09-2016 01:15:00 17.4 C 12.15 g/m*3 17.4 C 0 km/h
17 15-09-2016 01:20:00 17.4 C 12.15 g/m*3 17.4 C 0 km/h
18 15-09-2016 01:25:00 17.3 C 12.08 g/m*3 17.3 C 0 km/h
19 15-09-2016 01:30:00 17.2 C 12.01 g/m*3 17.2 C 0 km/h
20 15-09-2016 01:35:00 17.1 C 12.08 g/m*3 17.1 C 0 km/h
21 15-09-2016 01:40:00 16.9 C 11.94 g/m*3 16.9 C 0 km/h
22 15-09-2016 01:45:00 16.9 C 11.94 g/m*3 16.9 C 0 km/h
23 15-09-2016 01:50:00 16.8 C 12.01 g/m*3 16.8 C 0 km/h
24 15-09-2016 01:55:00 16.7 C 11.94 g/m*3 16.7 C 0 km/h
25 15-09-2016 02:00:00 16.7 C 11.94 g/m*3 16.7 C 0 km/h
Sensor: Nr:Datum:Temp:Abs-Feuchte:Windchill:Wind:
Aussen-T/F 26 15-09-2016 02:05:00 16.7 C 12.08 g/m*3 16.7 C 0 km/h
27 15-09-2016 02:10:00 16.6 C 12.01 g/m*3 16.6 C 0 km/h
28 15-09-2016 02:15:00 16.6 C 11.87 g/m*3 16.6 C 0 km/h
29 15-09-2016 02:20:00 16.7 C 12.08 g/m*3 16.7 C 0 km/h
30 15-09-2016 02:25:00 16.8 C 12.15 g/m*3 16.8 C 0 km/h
31 15-09-2016 02:30:00 16.8 C 12.01 g/m*3 16.8 C 0 km/h
32 15-09-2016 02:35:00 16.8 C 12.01 g/m*3 16.8 C 0 km/h
33 15-09-2016 02:40:00 16.7 C 11.94 g/m*3 16.7 C 0 km/h
34 15-09-2016 02:45:00 16.6 C 12.01 g/m*3 16.6 C 0 km/h
35 15-09-2016 02:50:00 16.5 C 12.08 g/m*3 16.5 C 0 km/h
36 15-09-2016 02:55:00 16.4 C 12 g/m*3 16.4 C 0 km/h
37 15-09-2016 03:00:00 16.3 C 11.93 g/m*3 16.3 C 0 km/h
38 15-09-2016 03:05:00 16.3 C 11.93 g/m*3 16.3 C 0 km/h
39 15-09-2016 03:10:00 16.2 C 11.86 g/m*3 16.2 C 0 km/h
40 15-09-2016 03:15:00 16.3 C 11.93 g/m*3 16.3 C 0 km/h
41 15-09-2016 03:20:00 16.3 C 11.93 g/m*3 16.3 C 0 km/h
42 15-09-2016 03:25:00 16.3 C 11.93 g/m*3 16.3 C 0 km/h
43 15-09-2016 03:30:00 16.3 C 11.93 g/m*3 16.3 C 0 km/h
44 15-09-2016 03:35:00 16.3 C 11.93 g/m*3 16.3 C 0 km/h
45 15-09-2016 03:40:00 16.4 C 12 g/m*3 16.4 C 0 km/h
46 15-09-2016 03:45:00 16.4 C 11.86 g/m*3 16.4 C 0 km/h
47 15-09-2016 03:50:00 16.4 C 11.86 g/m*3 16.4 C 0 km/h
48 15-09-2016 03:55:00 16.4 C 11.86 g/m*3 16.4 C 0 km/h
49 15-09-2016 04:00:00 16.3 C 11.79 g/m*3 16.3 C 0 km/h
50 15-09-2016 04:05:00 16.3 C 11.93 g/m*3 16.3 C 0 km/h
Sensor: Nr:Datum:Temp:Abs-Feuchte:Windchill:Wind:
Aussen-T/F 51 15-09-2016 04:10:00 16.2 C 11.86 g/m*3 16.2 C 0 km/h
52 15-09-2016 04:15:00 16.1 C 11.79 g/m*3 16.1 C 0 km/h
53 15-09-2016 04:20:00 16 C 11.72 g/m*3 16 C 0 km/h
54 15-09-2016 04:25:00 15.9 C 11.78 g/m*3 15.9 C 0 km/h
55 15-09-2016 04:30:00 15.9 C 11.78 g/m*3 15.9 C 0 km/h
56 15-09-2016 04:35:00 15.8 C 11.71 g/m*3 15.8 C 0 km/h
57 15-09-2016 04:40:00 15.8 C 11.71 g/m*3 15.8 C 0 km/h
58 15-09-2016 04:45:00 15.8 C 11.71 g/m*3 15.8 C 0 km/h
59 15-09-2016 04:50:00 15.7 C 11.64 g/m*3 15.7 C 0 km/h
60 15-09-2016 04:55:00 15.6 C 11.7 g/m*3 15.6 C 0 km/h
61 15-09-2016 05:00:00 15.5 C 11.63 g/m*3 15.5 C 0 km/h
62 15-09-2016 05:05:00 15.5 C 11.63 g/m*3 15.5 C 0 km/h
63 15-09-2016 05:10:00 15.4 C 11.56 g/m*3 15.4 C 0 km/h
64 15-09-2016 05:15:00 15.4 C 11.56 g/m*3 15.4 C 0 km/h
65 15-09-2016 05:20:00 15.3 C 11.49 g/m*3 15.3 C 0 km/h
66 15-09-2016 05:25:00 15.3 C 11.62 g/m*3 15.3 C 0 km/h
67 15-09-2016 05:30:00 15.3 C 11.62 g/m*3 15.3 C 0 km/h
68 15-09-2016 05:35:00 15.3 C 11.62 g/m*3 15.3 C 0 km/h
69 15-09-2016 05:40:00 15.3 C 11.62 g/m*3 15.3 C 0 km/h
70 15-09-2016 05:45:00 15.3 C 11.62 g/m*3 15.3 C 0 km/h
71 15-09-2016 05:50:00 15.3 C 11.62 g/m*3 15.3 C 0 km/h
72 15-09-2016 05:55:00 15.2 C 11.42 g/m*3 15.2 C 0 km/h
73 15-09-2016 06:00:00 15.1 C 11.35 g/m*3 15.1 C 0 km/h
74 15-09-2016 06:05:00 15 C 11.28 g/m*3 15 C 0 km/h
75 15-09-2016 06:10:00 14.9 C 11.34 g/m*3 14.9 C 0 km/h
Sensor: Nr:Datum:Temp:Abs-Feuchte:Windchill:Wind:
Aussen-T/F 76 15-09-2016 06:15:00 14.8 C 11.27 g/m*3 14.8 C 0 km/h
77 15-09-2016 06:20:00 14.7 C 11.21 g/m*3 14.7 C 0 km/h
78 15-09-2016 06:25:00 14.7 C 11.33 g/m*3 14.7 C 0 km/h
79 15-09-2016 06:30:00 14.6 C 11.14 g/m*3 14.6 C 0 km/h
80 15-09-2016 06:35:00 14.5 C 11.19 g/m*3 14.5 C 0 km/h
81 15-09-2016 06:40:00 14.4 C 11.13 g/m*3 14.4 C 0 km/h
82 15-09-2016 06:45:00 14.3 C 11.06 g/m*3 14.3 C 0 km/h
83 15-09-2016 06:50:00 14.3 C 11.06 g/m*3 14.3 C 0 km/h
84 15-09-2016 06:55:00 14.2 C 10.99 g/m*3 14.2 C 0 km/h
85 15-09-2016 07:00:00 14.1 C 10.92 g/m*3 14.1 C 0 km/h
86 15-09-2016 07:05:00 14.1 C 11.04 g/m*3 14.1 C 0 km/h
87 15-09-2016 07:10:00 14.1 C 11.04 g/m*3 14.1 C 0 km/h
88 15-09-2016 07:15:00 14.1 C 11.17 g/m*3 14.1 C 0 km/h
89 15-09-2016 07:20:00 14.1 C 11.17 g/m*3 14.1 C 0 km/h
90 15-09-2016 07:25:00 14.1 C 11.04 g/m*3 14.1 C 0 km/h
91 15-09-2016 07:30:00 14.1 C 11.17 g/m*3 14.1 C 0 km/h
92 15-09-2016 07:35:00 14 C 10.98 g/m*3 14 C 0 km/h
93 15-09-2016 07:40:00 13.9 C 10.91 g/m*3 13.9 C 0 km/h
94 15-09-2016 07:45:00 13.9 C 11.03 g/m*3 13.9 C 0 km/h
95 15-09-2016 07:50:00 13.9 C 11.03 g/m*3 13.9 C 0 km/h
96 15-09-2016 07:55:00 13.9 C 11.03 g/m*3 13.9 C 0 km/h
97 15-09-2016 08:00:00 13.9 C 11.03 g/m*3 13.9 C 0 km/h
98 15-09-2016 08:05:00 14 C 11.22 g/m*3 14 C 0 km/h
99 15-09-2016 08:10:00 14.1 C 11.29 g/m*3 14.1 C 0 km/h
100 15-09-2016 08:15:00 14.1 C 11.29 g/m*3 14.1 C 0 km/h
Sensor: Nr:Datum:Temp:Abs-Feuchte:Windchill:Wind:
Aussen-T/F 101 15-09-2016 08:20:00 14.1 C 11.29 g/m*3 14.1 C 0 km/h
102 15-09-2016 08:25:00 14.2 C 11.36 g/m*3 14.2 C 0 km/h
103 15-09-2016 08:30:00 14.2 C 11.36 g/m*3 14.2 C 0 km/h
104 15-09-2016 08:35:00 14.2 C 11.36 g/m*3 14.2 C 0 km/h
105 15-09-2016 08:40:00 14.2 C 11.36 g/m*3 14.2 C 0 km/h
106 15-09-2016 08:45:00 14.2 C 11.36 g/m*3 14.2 C 0 km/h
107 15-09-2016 08:50:00 14.3 C 11.43 g/m*3 14.3 C 0 km/h
108 15-09-2016 08:55:00 14.3 C 11.43 g/m*3 14.3 C 0 km/h
109 15-09-2016 09:00:00 14.4 C 11.5 g/m*3 14.4 C 0 km/h
110 15-09-2016 09:05:00 14.5 C 11.57 g/m*3 14.5 C 0 km/h
111 15-09-2016 09:10:00 14.6 C 11.64 g/m*3 14.6 C 0 km/h
112 15-09-2016 09:15:00 14.7 C 11.71 g/m*3 14.7 C 0 km/h
113 15-09-2016 09:20:00 14.8 C 11.91 g/m*3 14.8 C 0 km/h
114 15-09-2016 09:25:00 14.9 C 11.98 g/m*3 14.9 C 0 km/h
115 15-09-2016 09:30:00 15 C 12.05 g/m*3 15 C 0 km/h
116 15-09-2016 09:35:00 15.2 C 12.2 g/m*3 15.2 C 0 km/h
117 15-09-2016 09:40:00 15.3 C 12.28 g/m*3 15.3 C 0 km/h
118 15-09-2016 09:45:00 15.5 C 12.43 g/m*3 15.5 C 0 km/h
119 15-09-2016 09:50:00 15.6 C 12.5 g/m*3 15.6 C 0 km/h
120 15-09-2016 09:55:00 15.8 C 12.65 g/m*3 15.8 C 0 km/h
121 15-09-2016 10:00:00 16 C 12.81 g/m*3 16 C 0 km/h
122 15-09-2016 10:05:00 16.2 C 12.82 g/m*3 16.2 C 1.6 km/h
123 15-09-2016 10:10:00 16.4 C 12.98 g/m*3 16.4 C 1.6 km/h
124 15-09-2016 10:15:00 16.7 C 13.07 g/m*3 16.7 C 0 km/h
125 15-09-2016 10:20:00 16.9 C 13.23 g/m*3 16.9 C 1.6 km/h
Sensor: Nr:Datum:Temp:Abs-Feuchte:Windchill:Wind:
Aussen-T/F 126 15-09-2016 10:25:00 17.2 C 13.33 g/m*3 17.2 C 4.8 km/h
127 15-09-2016 10:30:00 17.6 C 13.35 g/m*3 17.6 C 4.8 km/h
128 15-09-2016 10:35:00 18 C 13.52 g/m*3 18 C 0 km/h
129 15-09-2016 10:40:00 18.3 C 13.76 g/m*3 18.3 C 1.6 km/h
130 15-09-2016 10:45:00 18.5 C 13.92 g/m*3 18.5 C 0 km/h
131 15-09-2016 10:50:00 18.8 C 14.01 g/m*3 18.8 C 0 km/h
132 15-09-2016 10:55:00 19 C 14.01 g/m*3 19 C 3.2 km/h
133 15-09-2016 11:00:00 19.3 C 13.77 g/m*3 19.3 C 4.8 km/h
134 15-09-2016 11:05:00 19.7 C 14.09 g/m*3 19.7 C 0 km/h
135 15-09-2016 11:10:00 20 C 13.65 g/m*3 20 C 6.4 km/h
136 15-09-2016 11:15:00 20.4 C 13.8 g/m*3 20.4 C 3.2 km/h
137 15-09-2016 11:20:00 20.9 C 13.48 g/m*3 20.9 C 8.1 km/h
138 15-09-2016 11:25:00 21.4 C 14.06 g/m*3 21.4 C 3.2 km/h
139 15-09-2016 11:30:00 21.8 C 14.01 g/m*3 21.8 C 9.7 km/h
140 15-09-2016 11:35:00 22.2 C 14.33 g/m*3 22.2 C 3.2 km/h
141 15-09-2016 11:40:00 22.3 C 13.62 g/m*3 22.3 C 9.7 km/h
142 15-09-2016 11:45:00 22.6 C 13.46 g/m*3 22.6 C 8.1 km/h
143 15-09-2016 11:50:00 22.9 C 13.69 g/m*3 22.9 C 6.4 km/h
144 15-09-2016 11:55:00 23.1 C 14.06 g/m*3 23.1 C 4.8 km/h
145 15-09-2016 12:00:00 23.2 C 13.72 g/m*3 23.2 C 9.7 km/h
146 15-09-2016 12:05:00 23.3 C 13.8 g/m*3 23.3 C 8.1 km/h
147 15-09-2016 12:10:00 23.4 C 13.67 g/m*3 23.4 C 9.7 km/h
148 15-09-2016 12:15:00 23.7 C 14.12 g/m*3 23.7 C 4.8 km/h
149 15-09-2016 12:20:00 23.9 C 13.63 g/m*3 23.9 C 4.8 km/h
150 15-09-2016 12:25:00 24.1 C 13.57 g/m*3 24.1 C 3.2 km/h
Sensor: Nr:Datum:Temp:Abs-Feuchte:Windchill:Wind:
Aussen-T/F 151 15-09-2016 12:30:00 24.3 C 13.72 g/m*3 24.3 C 6.4 km/h
152 15-09-2016 12:35:00 24.4 C 13.8 g/m*3 24.4 C 4.8 km/h
153 15-09-2016 12:40:00 24.4 C 14.69 g/m*3 24.4 C 1.6 km/h
154 15-09-2016 12:45:00 24.5 C 14.32 g/m*3 24.5 C 4.8 km/h
155 15-09-2016 12:50:00 24.6 C 14.18 g/m*3 24.6 C 3.2 km/h
156 15-09-2016 12:55:00 24.7 C 14.03 g/m*3 24.7 C 6.4 km/h
157 15-09-2016 13:00:00 24.9 C 13.73 g/m*3 24.9 C 6.4 km/h
158 15-09-2016 13:05:00 25.2 C 14.2 g/m*3 25.2 C 4.8 km/h
159 15-09-2016 13:10:00 25.4 C 15.07 g/m*3 25.4 C 0 km/h
160 15-09-2016 13:15:00 25.4 C 14.13 g/m*3 25.4 C 6.4 km/h
161 15-09-2016 13:20:00 25.5 C 13.97 g/m*3 25.5 C 9.7 km/h
162 15-09-2016 13:25:00 25.8 C 14.45 g/m*3 25.8 C 14.5 km/h
163 15-09-2016 13:30:00 25.8 C 14.2 g/m*3 25.8 C 6.4 km/h
164 15-09-2016 13:35:00 25.8 C 13.96 g/m*3 25.8 C 6.4 km/h
165 15-09-2016 13:40:00 25.9 C 14.04 g/m*3 25.9 C 9.7 km/h
166 15-09-2016 13:45:00 26.1 C 13.95 g/m*3 26.1 C 11.3 km/h
167 15-09-2016 13:50:00 26.3 C 14.36 g/m*3 26.3 C 12.9 km/h
168 15-09-2016 13:55:00 26.4 C 14.44 g/m*3 26.4 C 9.7 km/h
169 15-09-2016 14:00:00 26.6 C 14.85 g/m*3 26.6 C 8.1 km/h
170 15-09-2016 14:05:00 26.6 C 14.1 g/m*3 26.6 C 8.1 km/h
171 15-09-2016 14:10:00 26.6 C 14.1 g/m*3 26.6 C 8.1 km/h
172 15-09-2016 14:15:00 26.6 C 15.35 g/m*3 26.6 C 6.4 km/h
173 15-09-2016 14:20:00 26.4 C 14.19 g/m*3 26.4 C 6.4 km/h
174 15-09-2016 14:25:00 26.4 C 14.19 g/m*3 26.4 C 4.8 km/h
175 15-09-2016 14:30:00 26.5 C 14.02 g/m*3 26.5 C 9.7 km/h
Sensor: Nr:Datum:Temp:Abs-Feuchte:Windchill:Wind:
Aussen-T/F 176 15-09-2016 14:35:00 26.6 C 14.1 g/m*3 26.6 C 11.3 km/h
177 15-09-2016 14:40:00 26.7 C 13.67 g/m*3 26.7 C 6.4 km/h
178 15-09-2016 14:45:00 26.8 C 14.25 g/m*3 26.8 C 9.7 km/h
179 15-09-2016 14:50:00 26.8 C 13.74 g/m*3 26.8 C 6.4 km/h
180 15-09-2016 14:55:00 26.9 C 13.82 g/m*3 26.9 C 1.6 km/h
181 15-09-2016 15:00:00 26.9 C 14.84 g/m*3 26.9 C 3.2 km/h
182 15-09-2016 15:05:00 27 C 13.9 g/m*3 27 C 8.1 km/h
183 15-09-2016 15:10:00 27.1 C 14.23 g/m*3 27.1 C 6.4 km/h
184 15-09-2016 15:15:00 27.1 C 15.01 g/m*3 27.1 C 4.8 km/h
185 15-09-2016 15:20:00 26.9 C 15.36 g/m*3 26.9 C 1.6 km/h
186 15-09-2016 15:25:00 26.8 C 15.53 g/m*3 26.8 C 4.8 km/h
187 15-09-2016 15:30:00 26.7 C 14.93 g/m*3 26.7 C 3.2 km/h
188 15-09-2016 15:35:00 26.6 C 15.1 g/m*3 26.6 C 1.6 km/h
189 15-09-2016 15:40:00 26.6 C 15.86 g/m*3 26.6 C 0 km/h
190 15-09-2016 15:45:00 26.4 C 14.69 g/m*3 26.4 C 0 km/h
191 15-09-2016 15:50:00 26.5 C 15.27 g/m*3 26.5 C 0 km/h
192 15-09-2016 15:55:00 26.6 C 16.11 g/m*3 26.6 C 1.6 km/h
193 15-09-2016 16:00:00 26.6 C 16.36 g/m*3 26.6 C 0 km/h
194 15-09-2016 16:05:00 26.6 C 16.11 g/m*3 26.6 C 3.2 km/h
195 15-09-2016 16:10:00 26.5 C 14.52 g/m*3 26.5 C 4.8 km/h
196 15-09-2016 16:15:00 26.6 C 15.1 g/m*3 26.6 C 0 km/h
197 15-09-2016 16:20:00 26.8 C 14.25 g/m*3 26.8 C 3.2 km/h
198 15-09-2016 16:25:00 27.1 C 13.97 g/m*3 27.1 C 9.7 km/h
199 15-09-2016 16:30:00 27.3 C 15.96 g/m*3 27.3 C 1.6 km/h
200 15-09-2016 16:35:00 27.4 C 14.21 g/m*3 27.4 C 3.2 km/h
Sensor: Nr:Datum:Temp:Abs-Feuchte:Windchill:Wind:
Aussen-T/F 201 15-09-2016 16:40:00 27.5 C 14.29 g/m*3 27.5 C 3.2 km/h
202 15-09-2016 16:45:00 27.6 C 14.37 g/m*3 27.6 C 4.8 km/h
203 15-09-2016 16:50:00 27.7 C 14.44 g/m*3 27.7 C 1.6 km/h
204 15-09-2016 16:55:00 27.5 C 14.55 g/m*3 27.5 C 3.2 km/h
205 15-09-2016 17:00:00 27.3 C 15.18 g/m*3 27.3 C 0 km/h
206 15-09-2016 17:05:00 27.2 C 15.35 g/m*3 27.2 C 1.6 km/h
207 15-09-2016 17:10:00 27 C 15.96 g/m*3 27 C 3.2 km/h
208 15-09-2016 17:15:00 26.9 C 16.38 g/m*3 26.9 C 0 km/h
209 15-09-2016 17:20:00 26.8 C 15.02 g/m*3 26.8 C 6.4 km/h
210 15-09-2016 17:25:00 26.8 C 14.51 g/m*3 26.8 C 16.1 km/h
211 15-09-2016 17:30:00 26.8 C 14.76 g/m*3 26.8 C 9.7 km/h
212 15-09-2016 17:35:00 27 C 14.93 g/m*3 27 C 6.4 km/h
213 15-09-2016 17:40:00 27.1 C 14.49 g/m*3 27.1 C 14.5 km/h
214 15-09-2016 17:45:00 26.9 C 14.33 g/m*3 26.9 C 11.3 km/h
215 15-09-2016 17:50:00 26.6 C 14.1 g/m*3 26.6 C 12.9 km/h
216 15-09-2016 17:55:00 26.2 C 14.03 g/m*3 26.2 C 8.1 km/h
217 15-09-2016 18:00:00 25.8 C 14.45 g/m*3 25.8 C 11.3 km/h
218 15-09-2016 18:05:00 25.6 C 14.28 g/m*3 25.6 C 9.7 km/h
219 15-09-2016 18:10:00 25.2 C 13.97 g/m*3 25.2 C 6.4 km/h
220 15-09-2016 18:15:00 24.9 C 14.19 g/m*3 24.9 C 12.9 km/h
221 15-09-2016 18:20:00 24.7 C 14.26 g/m*3 24.7 C 11.3 km/h
222 15-09-2016 18:25:00 24.5 C 14.32 g/m*3 24.5 C 9.7 km/h
223 15-09-2016 18:30:00 24.4 C 14.47 g/m*3 24.4 C 4.8 km/h
224 15-09-2016 18:35:00 24.3 C 14.38 g/m*3 24.3 C 9.7 km/h
225 15-09-2016 18:40:00 24.2 C 14.52 g/m*3 24.2 C 11.3 km/h
Sensor: Nr:Datum:Temp:Abs-Feuchte:Windchill:Wind:
Aussen-T/F 226 15-09-2016 18:45:00 24.1 C 14.22 g/m*3 24.1 C 8.1 km/h
227 15-09-2016 18:50:00 24.1 C 14.44 g/m*3 24.1 C 9.7 km/h
228 15-09-2016 18:55:00 23.9 C 14.06 g/m*3 23.9 C 12.9 km/h
229 15-09-2016 19:00:00 23.9 C 14.28 g/m*3 23.9 C 11.3 km/h
230 15-09-2016 19:05:00 23.7 C 14.12 g/m*3 23.7 C 6.4 km/h
231 15-09-2016 19:10:00 23.6 C 14.25 g/m*3 23.6 C 4.8 km/h
232 15-09-2016 19:15:00 23.4 C 14.09 g/m*3 23.4 C 4.8 km/h
233 15-09-2016 19:20:00 23.3 C 14.01 g/m*3 23.3 C 12.9 km/h
234 15-09-2016 19:25:00 23.2 C 13.93 g/m*3 23.2 C 9.7 km/h
235 15-09-2016 19:30:00 23.2 C 13.93 g/m*3 23.2 C 6.4 km/h
236 15-09-2016 19:35:00 23.1 C 13.85 g/m*3 23.1 C 6.4 km/h
237 15-09-2016 19:40:00 23 C 13.77 g/m*3 23 C 11.3 km/h
238 15-09-2016 19:45:00 22.9 C 13.9 g/m*3 22.9 C 9.7 km/h
239 15-09-2016 19:50:00 22.8 C 13.82 g/m*3 22.8 C 12.9 km/h
240 15-09-2016 19:55:00 22.8 C 14.02 g/m*3 22.8 C 8.1 km/h
241 15-09-2016 20:00:00 22.7 C 13.94 g/m*3 22.7 C 9.7 km/h
242 15-09-2016 20:05:00 22.5 C 14.18 g/m*3 22.5 C 9.7 km/h
243 15-09-2016 20:10:00 22.2 C 14.14 g/m*3 22.2 C 12.9 km/h
244 15-09-2016 20:15:00 21.8 C 14.01 g/m*3 21.8 C 14.5 km/h
245 15-09-2016 20:20:00 21.4 C 13.87 g/m*3 21.4 C 12.9 km/h
246 15-09-2016 20:25:00 21 C 13.74 g/m*3 21 C 14.5 km/h
247 15-09-2016 20:30:00 20.8 C 13.76 g/m*3 20.8 C 16.1 km/h
248 15-09-2016 20:35:00 20.6 C 13.6 g/m*3 20.6 C 19.3 km/h
249 15-09-2016 20:40:00 20.4 C 13.44 g/m*3 20.4 C 14.5 km/h
250 15-09-2016 20:45:00 20.3 C 13.37 g/m*3 20.3 C 9.7 km/h
Sensor: Nr:Datum:Temp:Abs-Feuchte:Windchill:Wind:
Aussen-T/F 251 15-09-2016 20:50:00 20.2 C 13.29 g/m*3 20.2 C 11.3 km/h
252 15-09-2016 20:55:00 20.2 C 13.11 g/m*3 20.2 C 11.3 km/h
253 15-09-2016 21:00:00 20.1 C 13.04 g/m*3 20.1 C 11.3 km/h
254 15-09-2016 21:05:00 20.1 C 13.04 g/m*3 20.1 C 14.5 km/h
255 15-09-2016 21:10:00 20.1 C 13.21 g/m*3 20.1 C 12.9 km/h
256 15-09-2016 21:15:00 20.1 C 13.21 g/m*3 20.1 C 6.4 km/h
257 15-09-2016 21:20:00 20 C 13.31 g/m*3 20 C 12.9 km/h
258 15-09-2016 21:25:00 19.9 C 13.23 g/m*3 19.9 C 9.7 km/h
259 15-09-2016 21:30:00 19.9 C 13.4 g/m*3 19.9 C 11.3 km/h
260 15-09-2016 21:35:00 19.8 C 13.32 g/m*3 19.8 C 6.4 km/h
261 15-09-2016 21:40:00 19.8 C 13.49 g/m*3 19.8 C 8.1 km/h
262 15-09-2016 21:45:00 19.7 C 13.41 g/m*3 19.7 C 9.7 km/h
263 15-09-2016 21:50:00 19.7 C 13.41 g/m*3 19.7 C 9.7 km/h
264 15-09-2016 21:55:00 19.6 C 13.34 g/m*3 19.6 C 16.1 km/h
265 15-09-2016 22:00:00 19.6 C 13.34 g/m*3 19.6 C 8.1 km/h
266 15-09-2016 22:05:00 19.6 C 13.34 g/m*3 19.6 C 8.1 km/h
267 15-09-2016 22:10:00 19.6 C 13.34 g/m*3 19.6 C 8.1 km/h
268 15-09-2016 22:15:00 19.5 C 13.26 g/m*3 19.5 C 8.1 km/h
269 15-09-2016 22:20:00 19.4 C 13.01 g/m*3 19.4 C 6.4 km/h
270 15-09-2016 22:25:00 19.4 C 13.01 g/m*3 19.4 C 8.1 km/h
271 15-09-2016 22:30:00 19.4 C 13.01 g/m*3 19.4 C 11.3 km/h
272 15-09-2016 22:35:00 19.4 C 13.01 g/m*3 19.4 C 6.4 km/h
273 15-09-2016 22:40:00 19.4 C 12.85 g/m*3 19.4 C 8.1 km/h
274 15-09-2016 22:45:00 19.3 C 12.77 g/m*3 19.3 C 17.7 km/h
275 15-09-2016 22:50:00 19.3 C 12.77 g/m*3 19.3 C 11.3 km/h
Sensor: Nr:Datum:Temp:Abs-Feuchte:Windchill:Wind:
Aussen-T/F 276 15-09-2016 22:55:00 19.3 C 12.77 g/m*3 19.3 C 4.8 km/h
277 15-09-2016 23:00:00 19.3 C 12.77 g/m*3 19.3 C 4.8 km/h
278 15-09-2016 23:05:00 19.3 C 12.77 g/m*3 19.3 C 3.2 km/h
279 15-09-2016 23:10:00 19.3 C 12.77 g/m*3 19.3 C 8.1 km/h
280 15-09-2016 23:15:00 19.3 C 12.77 g/m*3 19.3 C 11.3 km/h
281 15-09-2016 23:20:00 19.2 C 12.7 g/m*3 19.2 C 6.4 km/h
282 15-09-2016 23:25:00 19.2 C 12.7 g/m*3 19.2 C 3.2 km/h
283 15-09-2016 23:30:00 19.2 C 12.53 g/m*3 19.2 C 6.4 km/h
284 15-09-2016 23:35:00 19.2 C 12.53 g/m*3 19.2 C 6.4 km/h
285 15-09-2016 23:40:00 19.2 C 12.53 g/m*3 19.2 C 3.2 km/h
286 15-09-2016 23:45:00 19.2 C 12.53 g/m*3 19.2 C 4.8 km/h
287 15-09-2016 23:50:00 19.2 C 12.53 g/m*3 19.2 C 4.8 km/h
288 15-09-2016 23:55:00 19.2 C 12.53 g/m*3 19.2 C 9.7 km/h

Legende:
   Min
   Max


Maximal/Minimal-Werte vom 15.09.2016 - 15.09.2016

Sensor Min Max Avg
Temp
(Aussen-T/F)
13.9 °C
15-09-2016  07:40:00
27.7 °C
15-09-2016  16:50:00
20.03 °C
Abs-Feuchte
(Aussen-T/F)
10.91 g/m*3
15-09-2016  07:40:00
16.38 g/m*3
15-09-2016  17:15:00
12.98 g/m*3
Windchill
(Aussen-T/F)
13.9 C
15-09-2016  07:40:00
27.7 C
15-09-2016  16:50:00
19.96 C

Die Daten stammen von einer Davis Vantage Pro 2 Wetter-Station und werden unter Linux mit der Software wview2wettercgi und aufbereitet. Alle Angaben erfolgen ohne Gewähr für ihre Vollständigkeit oder Richtigkeit.
Kontakt: Rainer Krienke krienke@uni-koblenz.de . Meine Webseiten an der Uni Koblenz oder privat.
Version: $Revision: 0.78 $